createdAt,value
2018-05-14T00:00:50.485Z,106.47
2018-05-14T00:03:19.462Z,97.47
2018-05-14T00:05:46.954Z,105.10
2018-05-14T00:08:15.199Z,112.67
2018-05-14T00:10:42.697Z,108.83
2018-05-14T00:13:10.181Z,116.13
2018-05-14T00:15:37.656Z,114.97
2018-05-14T00:18:05.150Z,114.70
2018-05-14T00:20:33.389Z,110.63
2018-05-14T00:23:00.903Z,134.70
2018-05-14T00:25:28.377Z,125.20
2018-05-14T00:27:56.185Z,137.57
2018-05-14T00:30:24.425Z,138.77
2018-05-14T00:32:51.900Z,121.20
2018-05-14T00:35:19.391Z,135.43
2018-05-14T00:37:46.873Z,137.67
2018-05-14T00:40:14.361Z,137.63
2018-05-14T00:42:41.832Z,147.27
2018-05-14T00:45:09.342Z,147.67
2018-05-14T00:47:36.817Z,153.77
2018-05-14T00:50:04.347Z,158.37
2018-05-14T00:52:31.836Z,157.00
2018-05-14T00:55:11.289Z,162.43
2018-05-14T00:57:38.785Z,171.90
2018-05-14T01:00:06.271Z,164.40
2018-05-14T01:02:33.773Z,194.70
2018-05-14T01:05:02.013Z,184.53
2018-05-14T01:07:29.489Z,187.23
2018-05-14T01:09:56.979Z,193.27
2018-05-14T01:12:24.462Z,174.50
2018-05-14T01:14:51.953Z,188.90
2018-05-14T01:17:19.445Z,200.40
2018-05-14T01:19:46.947Z,187.70
2018-05-14T01:22:14.421Z,204.50
2018-05-14T01:24:47.541Z,224.50
2018-05-14T01:27:15.797Z,205.93
2018-05-14T01:29:43.272Z,185.87
2018-05-14T01:32:11.569Z,201.70
2018-05-14T01:34:39.132Z,199.90
2018-05-14T01:37:06.642Z,222.07
2018-05-14T01:39:34.113Z,198.27
2018-05-14T01:42:02.381Z,198.87
2018-05-14T01:44:30.620Z,238.10
2018-05-14T01:46:58.113Z,219.30
2018-05-14T01:49:26.378Z,227.37
2018-05-14T01:51:53.857Z,213.07
2018-05-14T01:54:22.117Z,244.57
2018-05-14T01:56:50.357Z,228.17
2018-05-14T01:59:17.852Z,208.57
2018-05-14T02:01:46.430Z,222.93
2018-05-14T02:04:13.957Z,239.70
2018-05-14T02:06:41.445Z,218.33
2018-05-14T02:09:09.686Z,223.40
2018-05-14T02:11:37.178Z,227.97
2018-05-14T02:14:05.423Z,216.33
2018-05-14T02:16:32.920Z,222.07
2018-05-14T02:19:00.399Z,211.03
2018-05-14T02:21:27.877Z,212.07
2018-05-14T02:23:55.373Z,222.60
2018-05-14T02:26:23.618Z,242.30
2018-05-14T02:28:51.124Z,237.03
2018-05-14T02:31:18.597Z,256.90
2018-05-14T02:33:46.097Z,278.57
2018-05-14T02:36:13.568Z,278.37
2018-05-14T02:38:41.045Z,274.30
2018-05-14T02:41:08.553Z,266.90
2018-05-14T02:43:36.025Z,255.67
2018-05-14T02:46:03.513Z,294.97
2018-05-14T02:48:31.749Z,291.67
2018-05-14T02:51:00.749Z,271.37
2018-05-14T02:53:28.223Z,261.37
2018-05-14T02:55:56.465Z,236.13
2018-05-14T02:58:23.962Z,239.13
2018-05-14T03:00:52.206Z,234.30
2018-05-14T03:03:19.695Z,229.67
2018-05-14T03:05:47.173Z,238.53
2018-05-14T03:08:14.685Z,241.03
2018-05-14T03:10:42.944Z,259.13
2018-05-14T03:13:10.422Z,239.67
2018-05-14T03:15:38.681Z,216.93
2018-05-14T03:18:06.189Z,234.70
2018-05-14T03:20:33.685Z,212.63
2018-05-14T03:23:01.157Z,221.33
2018-05-14T03:25:28.654Z,261.33
2018-05-14T03:27:56.130Z,225.63
2018-05-14T03:30:23.601Z,247.00
2018-05-14T03:32:51.126Z,226.13
2018-05-14T03:35:18.634Z,235.37
2018-05-14T03:37:46.117Z,221.60
2018-05-14T03:40:14.364Z,222.83
2018-05-14T03:42:41.856Z,224.20
2018-05-14T03:45:09.330Z,219.57
2018-05-14T03:47:36.809Z,235.33
2018-05-14T03:50:04.302Z,218.57
2018-05-14T03:52:31.772Z,222.67
2018-05-14T03:55:00.013Z,207.27
2018-05-14T03:57:27.524Z,236.10
2018-05-14T04:00:06.833Z,208.90
2018-05-14T04:02:47.045Z,207.37
2018-05-14T04:05:17.147Z,208.60
2018-05-14T04:07:44.803Z,211.27
2018-05-14T04:10:12.345Z,191.77
2018-05-14T04:12:39.870Z,209.50
2018-05-14T04:15:08.345Z,188.97
2018-05-14T04:17:35.856Z,209.33
2018-05-14T04:20:03.421Z,209.20
2018-05-14T04:22:30.926Z,206.97
2018-05-14T04:24:59.165Z,201.07
2018-05-14T04:27:26.685Z,213.43
2018-05-14T04:29:54.161Z,207.13
2018-05-14T04:32:21.641Z,248.73
2018-05-14T04:34:49.137Z,251.40
2018-05-14T04:37:17.374Z,258.67
2018-05-14T04:39:44.873Z,249.33
2018-05-14T04:42:12.352Z,249.50
2018-05-14T04:44:39.842Z,249.90
2018-05-14T04:47:07.342Z,266.40
2018-05-14T04:49:34.826Z,226.27
2018-05-14T04:52:02.370Z,232.53
2018-05-14T04:54:29.849Z,226.03
2018-05-14T04:56:57.323Z,236.97
2018-05-14T04:59:24.813Z,244.90
2018-05-14T05:01:53.065Z,231.30
2018-05-14T05:04:20.567Z,230.17
2018-05-14T05:06:48.131Z,207.93
2018-05-14T05:09:15.606Z,225.67
2018-05-14T05:11:43.101Z,198.27
2018-05-14T05:14:10.596Z,185.53
2018-05-14T05:16:38.429Z,186.40
2018-05-14T05:19:06.675Z,187.13
2018-05-14T05:21:34.149Z,196.40
2018-05-14T05:24:01.647Z,185.07
2018-05-14T05:26:29.125Z,189.10
2018-05-14T05:28:56.630Z,184.23
2018-05-14T05:31:24.885Z,190.20
2018-05-14T05:33:52.365Z,184.83
2018-05-14T05:36:20.665Z,197.80
2018-05-14T05:38:48.133Z,174.93
2018-05-14T05:41:15.713Z,185.33
2018-05-14T05:43:43.213Z,191.60
2018-05-14T05:46:11.464Z,171.53
2018-05-14T05:48:38.960Z,171.80
2018-05-14T05:51:06.464Z,184.27
2018-05-14T05:53:34.275Z,181.90
2018-05-14T05:56:01.750Z,163.80
2018-05-14T05:58:29.240Z,168.50
2018-05-14T06:00:56.717Z,162.83
2018-05-14T06:03:24.993Z,174.53
2018-05-14T06:05:53.297Z,169.07
2018-05-14T06:08:20.790Z,161.73
2018-05-14T06:10:48.293Z,167.80
2018-05-14T06:13:16.564Z,170.53
2018-05-14T06:15:45.145Z,181.03
2018-05-14T06:18:13.394Z,169.43
2018-05-14T06:20:40.871Z,175.80
2018-05-14T06:23:09.130Z,164.33
2018-05-14T06:25:36.609Z,163.57
2018-05-14T06:28:04.894Z,149.03
2018-05-14T06:30:32.394Z,146.77
2018-05-14T06:32:59.896Z,153.47
2018-05-14T06:35:28.188Z,156.57
2018-05-14T06:37:55.848Z,175.13
2018-05-14T06:40:23.341Z,156.47
2018-05-14T06:42:50.818Z,155.17
2018-05-14T06:45:18.317Z,152.57
2018-05-14T06:47:45.808Z,147.97
2018-05-14T06:50:13.305Z,166.50
2018-05-14T06:52:40.789Z,155.33
2018-05-14T06:55:08.297Z,155.50
2018-05-14T06:57:35.788Z,162.00
2018-05-14T07:00:04.033Z,148.20
2018-05-14T07:02:31.541Z,142.33
2018-05-14T07:04:59.032Z,132.93
2018-05-14T07:07:26.577Z,141.77
2018-05-14T07:09:54.052Z,146.83
2018-05-14T07:12:21.528Z,142.50
2018-05-14T07:14:49.017Z,140.33
2018-05-14T07:17:16.498Z,127.03
2018-05-14T07:19:43.985Z,141.73
2018-05-14T07:22:11.461Z,145.83
2018-05-14T07:24:39.723Z,152.90
2018-05-14T07:27:07.201Z,151.30
2018-05-14T07:29:34.693Z,143.83
2018-05-14T07:32:02.214Z,146.40
2018-05-14T07:34:30.465Z,148.93
2018-05-14T07:36:58.002Z,158.63
2018-05-14T07:39:25.495Z,154.47
2018-05-14T07:41:53.009Z,164.63
2018-05-14T07:44:20.493Z,162.97
2018-05-14T07:46:47.986Z,162.40
2018-05-14T07:49:15.488Z,171.03
2018-05-14T07:51:42.961Z,164.33
2018-05-14T07:54:10.493Z,154.63
2018-05-14T07:56:37.977Z,160.30
2018-05-14T07:59:05.465Z,158.87
2018-05-14T08:01:33.181Z,163.00
2018-05-14T08:04:00.657Z,174.43
2018-05-14T08:06:28.152Z,150.97
2018-05-14T08:08:55.674Z,175.97
2018-05-14T08:11:23.937Z,163.43
2018-05-14T08:13:51.433Z,175.17
2018-05-14T08:16:18.905Z,154.50
2018-05-14T08:18:46.447Z,143.60
2018-05-14T08:21:13.921Z,156.13
2018-05-14T08:23:41.397Z,157.93
2018-05-14T08:26:08.884Z,157.33
2018-05-14T08:28:37.135Z,153.13
2018-05-14T08:31:04.635Z,147.53
2018-05-14T08:33:32.884Z,164.47
2018-05-14T08:36:00.361Z,151.37
2018-05-14T08:38:27.945Z,151.33
2018-05-14T08:40:55.425Z,159.33
2018-05-14T08:43:22.944Z,152.40
2018-05-14T08:45:50.441Z,142.90
2018-05-14T08:48:17.928Z,146.87
2018-05-14T08:50:45.421Z,139.57
2018-05-14T08:53:12.921Z,143.07
2018-05-14T08:55:40.422Z,140.03
2018-05-14T08:58:07.904Z,133.33
2018-05-14T09:00:35.405Z,131.40
2018-05-14T09:03:03.713Z,119.07
2018-05-14T09:05:31.167Z,107.23
2018-05-14T09:07:58.842Z,114.30
2018-05-14T09:10:26.346Z,102.90
2018-05-14T09:12:53.816Z,90.30
2018-05-14T09:15:21.308Z,100.10
2018-05-14T09:17:48.776Z,97.10
2018-05-14T09:20:16.280Z,98.50
2018-05-14T09:22:43.752Z,94.10
2018-05-14T09:25:11.985Z,96.73
2018-05-14T09:27:39.480Z,104.20
2018-05-14T09:30:07.717Z,97.40
2018-05-14T09:32:35.217Z,90.13
2018-05-14T09:35:03.459Z,84.77
2018-05-14T09:37:30.937Z,101.93
2018-05-14T09:39:59.189Z,98.67
2018-05-14T09:42:26.669Z,107.40
2018-05-14T09:44:55.309Z,106.40
2018-05-14T09:47:22.819Z,104.77
2018-05-14T09:49:51.064Z,109.40
2018-05-14T09:52:18.556Z,110.10
2018-05-14T09:54:46.058Z,103.97
2018-05-14T09:57:13.559Z,95.93
2018-05-14T09:59:41.812Z,104.33
2018-05-14T10:02:09.293Z,96.60
2018-05-14T10:04:37.560Z,92.10
2018-05-14T10:07:05.819Z,93.87
2018-05-14T10:09:33.343Z,96.47
2018-05-14T10:12:00.822Z,102.70
2018-05-14T10:14:28.330Z,104.67
2018-05-14T10:16:55.825Z,93.67
2018-05-14T10:19:23.300Z,81.93
2018-05-14T10:21:50.796Z,78.93
2018-05-14T10:24:18.289Z,98.27
2018-05-14T10:26:45.762Z,91.10
2018-05-14T10:29:14.765Z,95.53
2018-05-14T10:31:43.006Z,86.43
2018-05-14T10:34:10.512Z,97.53
2018-05-14T10:36:38.757Z,99.37
2018-05-14T10:39:06.233Z,97.03
2018-05-14T10:41:34.489Z,95.57
2018-05-14T10:44:01.965Z,92.63
2018-05-14T10:46:30.224Z,93.30
2018-05-14T10:48:57.714Z,81.27
2018-05-14T10:51:25.226Z,80.67
2018-05-14T10:53:52.710Z,79.97
2018-05-14T10:56:20.963Z,86.10
2018-05-14T10:58:48.729Z,89.10
2018-05-14T11:01:16.209Z,89.60
2018-05-14T11:03:44.450Z,84.23
2018-05-14T11:06:11.943Z,81.47
2018-05-14T11:08:40.182Z,81.33
2018-05-14T11:11:07.693Z,79.53
2018-05-14T11:13:35.168Z,71.63
2018-05-14T11:16:02.638Z,72.87
2018-05-14T11:18:30.125Z,70.87
2018-05-14T11:20:58.365Z,68.60
2018-05-14T11:23:25.861Z,71.00
2018-05-14T11:25:54.097Z,75.43
2018-05-14T11:28:21.601Z,69.77
2018-05-14T11:30:49.864Z,66.17
2018-05-14T11:33:18.114Z,68.37
2018-05-14T11:35:45.902Z,63.53
2018-05-14T11:38:14.145Z,68.43
2018-05-14T11:40:41.628Z,65.63
2018-05-14T11:43:09.885Z,63.27
2018-05-14T11:45:37.361Z,63.10
2018-05-14T11:48:05.621Z,68.67
2018-05-14T11:50:33.229Z,65.67
2018-05-14T11:53:00.714Z,59.17
2018-05-14T11:55:28.203Z,64.13
2018-05-14T11:57:56.472Z,62.93
2018-05-14T12:00:23.965Z,60.73
2018-05-14T12:02:51.543Z,59.67
2018-05-14T12:05:18.942Z,55.93
2018-05-14T12:07:47.200Z,58.40
2018-05-14T12:10:14.678Z,50.43
2018-05-14T12:12:42.935Z,54.00
2018-05-14T12:15:10.411Z,51.47
2018-05-14T12:17:38.660Z,54.97
2018-05-14T12:20:06.152Z,55.50
2018-05-14T12:22:34.400Z,51.47
2018-05-14T12:25:01.927Z,54.23
2018-05-14T12:27:29.398Z,57.40
2018-05-14T12:29:56.884Z,55.37
2018-05-14T12:32:25.144Z,48.13
2018-05-14T12:34:52.617Z,49.97
2018-05-14T12:37:21.195Z,50.10
2018-05-14T12:39:49.436Z,47.77
2018-05-14T12:42:16.929Z,47.93
2018-05-14T12:44:45.187Z,48.63
2018-05-14T12:47:12.702Z,46.57
2018-05-14T12:49:40.202Z,47.23
2018-05-14T12:52:07.678Z,55.53
2018-05-14T12:54:35.916Z,51.53
2018-05-14T12:57:03.404Z,50.27
2018-05-14T12:59:31.657Z,54.33
2018-05-14T13:01:59.153Z,53.53
2018-05-14T13:04:26.724Z,51.43
2018-05-14T13:06:54.283Z,49.10
2018-05-14T13:09:21.748Z,49.67
2018-05-14T13:11:49.225Z,51.87
2018-05-14T13:14:16.760Z,50.90
2018-05-14T13:16:44.243Z,49.17
2018-05-14T13:19:11.768Z,46.13
2018-05-14T13:21:39.265Z,47.40
2018-05-14T13:24:06.773Z,49.07
2018-05-14T13:26:34.281Z,50.00
2018-05-14T13:29:01.781Z,51.17
2018-05-14T13:31:29.262Z,51.70
2018-05-14T13:33:56.783Z,49.33
2018-05-14T13:36:25.026Z,46.00
2018-05-14T13:38:52.530Z,49.03
2018-05-14T13:41:20.017Z,45.97
2018-05-14T13:43:47.489Z,44.57
2018-05-14T13:46:14.985Z,47.93
2018-05-14T13:48:42.475Z,42.90
2018-05-14T13:51:09.973Z,45.33
2018-05-14T13:53:38.217Z,45.80
2018-05-14T13:56:05.692Z,47.27
2018-05-14T13:58:33.191Z,45.10
2018-05-14T14:01:00.662Z,45.77
2018-05-14T14:03:28.157Z,44.17
2018-05-14T14:05:55.633Z,45.13
2018-05-14T14:08:23.884Z,41.27
2018-05-14T14:10:51.398Z,41.57
2018-05-14T14:13:18.881Z,39.67
2018-05-14T14:15:46.431Z,38.50
2018-05-14T14:18:13.909Z,41.73
2018-05-14T14:20:41.399Z,42.73
2018-05-14T14:23:08.931Z,40.50
2018-05-14T14:25:36.405Z,41.90
2018-05-14T14:28:04.661Z,45.07
2018-05-14T14:30:32.143Z,42.07
2018-05-14T14:33:00.385Z,47.23
2018-05-14T14:35:27.872Z,43.03
2018-05-14T14:37:56.117Z,42.70
2018-05-14T14:40:23.613Z,40.70
2018-05-14T14:42:51.114Z,41.53
2018-05-14T14:45:18.595Z,40.20
2018-05-14T14:47:46.100Z,40.53
2018-05-14T14:50:13.573Z,39.63
2018-05-14T14:52:41.065Z,41.43
2018-05-14T14:55:08.544Z,37.90
2018-05-14T14:57:37.259Z,35.73
2018-05-14T15:00:04.744Z,32.73
2018-05-14T15:02:32.225Z,29.70
2018-05-14T15:05:01.225Z,26.77
2018-05-14T15:07:29.468Z,28.03
2018-05-14T15:09:56.969Z,30.23
2018-05-14T15:12:25.221Z,24.67
2018-05-14T15:14:53.464Z,25.70
2018-05-14T15:17:20.993Z,20.90
2018-05-14T15:19:48.469Z,21.43
2018-05-14T15:22:15.952Z,22.23
2018-05-14T15:24:43.489Z,20.83
2018-05-14T15:27:10.997Z,17.67
2018-05-14T15:29:39.315Z,16.93
2018-05-14T15:32:07.523Z,15.00
2018-05-14T15:34:36.529Z,15.67
2018-05-14T15:37:04.021Z,16.37
2018-05-14T15:39:31.513Z,12.20
2018-05-14T15:41:59.005Z,13.33
2018-05-14T15:44:27.263Z,11.20
2018-05-14T15:46:54.738Z,12.70
2018-05-14T15:49:22.992Z,12.63
2018-05-14T15:51:51.971Z,17.10
2018-05-14T15:54:19.461Z,12.03
2018-05-14T15:56:47.702Z,10.70
2018-05-14T15:59:15.173Z,9.80
2018-05-14T16:01:43.490Z,10.67
2018-05-14T16:04:11.689Z,9.10
2018-05-14T16:06:39.204Z,8.03
2018-05-14T16:09:06.707Z,11.23
2018-05-14T16:11:34.191Z,10.10
2018-05-14T16:14:01.678Z,8.73
2018-05-14T16:16:29.145Z,9.63
2018-05-14T16:18:56.660Z,9.10
2018-05-14T16:21:25.109Z,7.53
2018-05-14T16:23:52.592Z,7.23
2018-05-14T16:26:20.845Z,7.83
2018-05-14T16:28:48.337Z,10.33
2018-05-14T16:31:16.826Z,7.57
2018-05-14T16:33:45.067Z,8.33
2018-05-14T16:36:12.553Z,7.73
2018-05-14T16:38:40.805Z,7.87
2018-05-14T16:41:09.037Z,8.20
2018-05-14T16:43:36.588Z,6.63
2018-05-14T16:46:04.077Z,8.07
2018-05-14T16:48:31.540Z,7.13
2018-05-14T16:50:59.025Z,6.60
2018-05-14T16:53:27.261Z,5.37
2018-05-14T16:55:54.785Z,8.53
2018-05-14T16:58:22.254Z,5.67
2018-05-14T17:00:49.748Z,6.43
2018-05-14T17:03:17.242Z,4.70
2018-05-14T17:05:44.705Z,8.20
2018-05-14T17:08:12.197Z,7.50
2018-05-14T17:10:39.721Z,5.33
2018-05-14T17:13:07.192Z,9.53
2018-05-14T17:15:34.681Z,10.23
2018-05-14T17:18:02.609Z,5.20
2018-05-14T17:20:30.326Z,7.17
2018-05-14T17:22:58.557Z,7.13
2018-05-14T17:25:26.025Z,10.60
2018-05-14T17:27:53.518Z,9.53
2018-05-14T17:30:21.756Z,10.00
2018-05-14T17:32:49.243Z,7.30
2018-05-14T17:35:17.490Z,6.03
2018-05-14T17:37:44.956Z,6.13
2018-05-14T17:40:12.457Z,6.10
2018-05-14T17:42:39.925Z,9.27
2018-05-14T17:45:07.479Z,5.27
2018-05-14T17:47:34.941Z,6.07
2018-05-14T17:50:02.416Z,5.97
2018-05-14T17:52:29.897Z,9.00
2018-05-14T17:54:57.369Z,4.10
2018-05-14T17:57:25.621Z,9.37
2018-05-14T17:59:53.084Z,6.13
2018-05-14T18:02:20.558Z,9.57
2018-05-14T18:04:48.805Z,6.10
2018-05-14T18:07:16.282Z,4.30
2018-05-14T18:09:43.773Z,7.23
2018-05-14T18:12:11.292Z,7.80
2018-05-14T18:14:38.740Z,7.03
2018-05-14T18:17:06.265Z,6.80
2018-05-14T18:19:39.560Z,4.87
2018-05-14T18:22:13.002Z,5.57
2018-05-14T18:24:46.130Z,7.40
2018-05-14T18:27:13.613Z,7.77
2018-05-14T18:29:41.091Z,4.33
2018-05-14T18:32:08.581Z,5.87
2018-05-14T18:34:39.646Z,6.70
2018-05-14T18:37:07.142Z,5.30
2018-05-14T18:39:34.613Z,6.60
2018-05-14T18:42:02.097Z,5.07
2018-05-14T18:44:33.357Z,4.90
2018-05-14T18:47:00.913Z,6.70
2018-05-14T18:49:28.393Z,5.77
2018-05-14T18:51:55.954Z,7.67
2018-05-14T18:54:23.377Z,7.43
2018-05-14T18:56:50.845Z,5.03
2018-05-14T18:59:18.321Z,5.53
2018-05-14T19:01:45.810Z,5.57
2018-05-14T19:04:13.282Z,4.63
2018-05-14T19:06:41.545Z,6.23
2018-05-14T19:09:09.806Z,7.87
2018-05-14T19:11:42.869Z,5.93
2018-05-14T19:14:10.369Z,5.13
2018-05-14T19:16:44.382Z,5.87
2018-05-14T19:19:12.645Z,6.00
2018-05-14T19:21:41.284Z,6.70
2018-05-14T19:24:08.752Z,6.33
2018-05-14T19:26:36.264Z,7.37
2018-05-14T19:29:09.509Z,7.77
2018-05-14T19:31:37.011Z,6.47
2018-05-14T19:34:10.038Z,7.53
2018-05-14T19:36:37.541Z,7.67
2018-05-14T19:39:05.797Z,7.40
2018-05-14T19:41:33.327Z,5.90
2018-05-14T19:44:00.804Z,8.07
2018-05-14T19:46:28.257Z,8.20
2018-05-14T19:48:55.749Z,5.47
2018-05-14T19:51:23.985Z,6.20
2018-05-14T19:53:51.477Z,5.93
2018-05-14T19:56:18.966Z,5.97
2018-05-14T19:58:46.446Z,7.63
2018-05-14T20:01:13.940Z,6.23
2018-05-14T20:03:42.181Z,6.23
2018-05-14T20:06:09.653Z,7.50
2018-05-14T20:08:37.158Z,5.67
2018-05-14T20:11:04.625Z,8.43
2018-05-14T20:13:32.120Z,9.07
2018-05-14T20:15:59.602Z,7.40
2018-05-14T20:18:27.842Z,6.33
2018-05-14T20:20:55.334Z,7.17
2018-05-14T20:23:23.574Z,10.23
2018-05-14T20:25:51.085Z,5.53
2018-05-14T20:28:18.574Z,5.27
2018-05-14T20:30:46.065Z,4.83
2018-05-14T20:33:14.313Z,10.17
2018-05-14T20:35:41.798Z,8.87
2018-05-14T20:38:10.316Z,5.87
2018-05-14T20:40:37.801Z,6.20
2018-05-14T20:43:05.268Z,7.47
2018-05-14T20:45:32.762Z,5.30
2018-05-14T20:48:01.049Z,7.70
2018-05-14T20:50:28.567Z,7.03
2018-05-14T20:52:56.044Z,8.60
2018-05-14T20:55:24.325Z,7.03
2018-05-14T20:57:52.586Z,5.83
2018-05-14T21:00:20.817Z,6.43
2018-05-14T21:02:48.337Z,7.00
2018-05-14T21:05:15.802Z,7.43
2018-05-14T21:07:43.304Z,8.80
2018-05-14T21:10:10.793Z,7.00
2018-05-14T21:12:39.027Z,6.17
2018-05-14T21:15:06.545Z,17.23
2018-05-14T21:17:34.021Z,13.13
2018-05-14T21:20:01.581Z,19.17
2018-05-14T21:22:29.119Z,26.03
2018-05-14T21:24:56.597Z,35.57
2018-05-14T21:27:24.097Z,36.93
2018-05-14T21:29:52.341Z,42.10
2018-05-14T21:32:19.814Z,40.17
2018-05-14T21:34:47.306Z,38.57
2018-05-14T21:37:14.784Z,43.93
2018-05-14T21:39:42.278Z,43.40
2018-05-14T21:42:09.779Z,51.23
2018-05-14T21:44:37.264Z,48.77
2018-05-14T21:47:04.752Z,50.33
2018-05-14T21:49:33.492Z,52.63
2018-05-14T21:52:01.030Z,43.80
2018-05-14T21:54:28.517Z,40.33
2018-05-14T21:56:55.995Z,39.60
2018-05-14T21:59:23.485Z,47.40
2018-05-14T22:01:50.998Z,48.13
2018-05-14T22:04:18.469Z,48.63
2018-05-14T22:06:45.970Z,53.87
2018-05-14T22:09:13.443Z,60.43
2018-05-14T22:11:40.929Z,60.27
2018-05-14T22:14:08.433Z,70.23
2018-05-14T22:16:36.820Z,79.93
2018-05-14T22:19:07.393Z,73.47
2018-05-14T22:21:34.890Z,82.33
2018-05-14T22:24:02.382Z,85.37
2018-05-14T22:26:29.932Z,89.27
2018-05-14T22:28:57.437Z,85.97
2018-05-14T22:31:24.905Z,86.27
2018-05-14T22:33:52.393Z,92.03
2018-05-14T22:36:19.882Z,97.33
2018-05-14T22:38:47.361Z,100.20
2018-05-14T22:41:15.626Z,96.03
2018-05-14T22:43:43.103Z,92.80
2018-05-14T22:46:11.420Z,93.30
2018-05-14T22:48:38.911Z,100.37
2018-05-14T22:51:06.385Z,100.40
2018-05-14T22:53:33.881Z,101.30
2018-05-14T22:56:01.447Z,98.03
2018-05-14T22:58:28.922Z,112.20
2018-05-14T23:00:56.432Z,111.83
2018-05-14T23:03:24.676Z,112.40
2018-05-14T23:05:52.959Z,105.53
2018-05-14T23:08:20.433Z,113.87
2018-05-14T23:10:48.672Z,113.50
2018-05-14T23:13:16.182Z,105.97
2018-05-14T23:15:43.656Z,115.90
2018-05-14T23:18:11.172Z,117.60
2018-05-14T23:20:39.413Z,112.50
2018-05-14T23:23:06.956Z,116.27
2018-05-14T23:25:35.172Z,111.17
2018-05-14T23:28:02.649Z,118.03
2018-05-14T23:30:30.916Z,122.57
2018-05-14T23:32:59.157Z,118.97
2018-05-14T23:35:26.664Z,116.37
2018-05-14T23:37:54.157Z,122.50
2018-05-14T23:40:21.633Z,119.23
2018-05-14T23:42:49.130Z,116.87
2018-05-14T23:45:16.625Z,124.57
2018-05-14T23:47:44.109Z,134.10
2018-05-14T23:50:11.605Z,121.90
2018-05-14T23:52:39.085Z,125.43
2018-05-14T23:55:06.601Z,125.70
2018-05-14T23:57:34.841Z,129.03
